sensor_id;sensor_type;location;lat;lon;timestamp;temperature;humidity
40434;DHT22;26146;51.114;5.654;2023-07-29T00:01:01;20.90;99.90
40434;DHT22;26146;51.114;5.654;2023-07-29T00:05:02;20.90;99.90
40434;DHT22;26146;51.114;5.654;2023-07-29T00:09:03;21.00;99.90
40434;DHT22;26146;51.114;5.654;2023-07-29T00:13:06;21.10;99.90
40434;DHT22;26146;51.114;5.654;2023-07-29T00:17:07;21.00;99.90
40434;DHT22;26146;51.114;5.654;2023-07-29T00:21:08;21.00;99.90
40434;DHT22;26146;51.114;5.654;2023-07-29T00:25:09;21.10;99.90
40434;DHT22;26146;51.114;5.654;2023-07-29T00:29:10;21.10;99.90
40434;DHT22;26146;51.114;5.654;2023-07-29T00:33:11;21.00;99.90
40434;DHT22;26146;51.114;5.654;2023-07-29T00:37:12;21.10;99.90
40434;DHT22;26146;51.114;5.654;2023-07-29T00:41:14;21.10;99.90
40434;DHT22;26146;51.114;5.654;2023-07-29T00:45:16;21.10;99.90
40434;DHT22;26146;51.114;5.654;2023-07-29T00:49:17;21.20;99.90
40434;DHT22;26146;51.114;5.654;2023-07-29T00:53:18;21.10;99.90
40434;DHT22;26146;51.114;5.654;2023-07-29T00:57:20;21.20;99.90
40434;DHT22;26146;51.114;5.654;2023-07-29T01:01:22;21.20;99.90
40434;DHT22;26146;51.114;5.654;2023-07-29T01:05:29;21.20;99.90
40434;DHT22;26146;51.114;5.654;2023-07-29T01:09:37;21.10;99.90
40434;DHT22;26146;51.114;5.654;2023-07-29T01:14:12;21.20;99.90
40434;DHT22;26146;51.114;5.654;2023-07-29T01:18:28;21.20;99.90
40434;DHT22;26146;51.114;5.654;2023-07-29T01:22:31;21.20;99.90
40434;DHT22;26146;51.114;5.654;2023-07-29T01:26:32;21.00;99.90
40434;DHT22;26146;51.114;5.654;2023-07-29T01:30:39;21.00;99.90
40434;DHT22;26146;51.114;5.654;2023-07-29T01:35:24;21.00;99.90
40434;DHT22;26146;51.114;5.654;2023-07-29T01:39:29;21.10;99.90
40434;DHT22;26146;51.114;5.654;2023-07-29T01:43:32;21.10;99.90
40434;DHT22;26146;51.114;5.654;2023-07-29T01:47:34;21.00;99.90
40434;DHT22;26146;51.114;5.654;2023-07-29T01:51:35;21.10;99.90
40434;DHT22;26146;51.114;5.654;2023-07-29T01:55:36;21.10;99.90
40434;DHT22;26146;51.114;5.654;2023-07-29T01:59:36;21.10;99.90
40434;DHT22;26146;51.114;5.654;2023-07-29T02:03:38;21.10;99.90
40434;DHT22;26146;51.114;5.654;2023-07-29T02:07:39;21.00;99.90
40434;DHT22;26146;51.114;5.654;2023-07-29T02:11:40;20.90;99.90
40434;DHT22;26146;51.114;5.654;2023-07-29T02:15:41;20.90;99.90
40434;DHT22;26146;51.114;5.654;2023-07-29T02:19:42;20.80;99.90
40434;DHT22;26146;51.114;5.654;2023-07-29T02:23:43;20.60;99.90
40434;DHT22;26146;51.114;5.654;2023-07-29T02:27:44;20.30;99.90
40434;DHT22;26146;51.114;5.654;2023-07-29T02:31:45;20.00;99.90
40434;DHT22;26146;51.114;5.654;2023-07-29T02:35:48;20.00;99.90
40434;DHT22;26146;51.114;5.654;2023-07-29T02:39:49;19.80;99.90
40434;DHT22;26146;51.114;5.654;2023-07-29T02:43:53;19.80;99.90
40434;DHT22;26146;51.114;5.654;2023-07-29T02:47:54;19.80;99.90
40434;DHT22;26146;51.114;5.654;2023-07-29T02:51:55;19.70;99.90
40434;DHT22;26146;51.114;5.654;2023-07-29T02:55:56;19.60;99.90
40434;DHT22;26146;51.114;5.654;2023-07-29T02:59:57;19.60;99.90
40434;DHT22;26146;51.114;5.654;2023-07-29T03:03:58;19.70;99.90
40434;DHT22;26146;51.114;5.654;2023-07-29T03:07:59;19.70;99.90
40434;DHT22;26146;51.114;5.654;2023-07-29T03:12:00;19.60;99.90
40434;DHT22;26146;51.114;5.654;2023-07-29T03:16:09;19.60;99.90
40434;DHT22;26146;51.114;5.654;2023-07-29T03:20:10;19.40;99.90
40434;DHT22;26146;51.114;5.654;2023-07-29T03:24:11;19.40;99.90
40434;DHT22;26146;51.114;5.654;2023-07-29T03:28:12;19.50;99.90
40434;DHT22;26146;51.114;5.654;2023-07-29T03:32:13;19.50;99.90
40434;DHT22;26146;51.114;5.654;2023-07-29T03:36:14;19.40;99.90
40434;DHT22;26146;51.114;5.654;2023-07-29T03:40:16;19.30;99.90
40434;DHT22;26146;51.114;5.654;2023-07-29T03:44:17;19.30;99.90
40434;DHT22;26146;51.114;5.654;2023-07-29T03:48:19;19.40;99.90
40434;DHT22;26146;51.114;5.654;2023-07-29T03:52:20;19.40;99.90
40434;DHT22;26146;51.114;5.654;2023-07-29T03:56:20;19.30;99.90
40434;DHT22;26146;51.114;5.654;2023-07-29T04:00:22;19.30;99.90
40434;DHT22;26146;51.114;5.654;2023-07-29T04:04:22;19.40;99.90
40434;DHT22;26146;51.114;5.654;2023-07-29T04:08:23;19.30;99.90
40434;DHT22;26146;51.114;5.654;2023-07-29T04:12:24;19.30;99.90
40434;DHT22;26146;51.114;5.654;2023-07-29T04:16:26;19.20;99.90
40434;DHT22;26146;51.114;5.654;2023-07-29T04:20:27;19.10;99.90
40434;DHT22;26146;51.114;5.654;2023-07-29T04:24:28;19.10;99.90
40434;DHT22;26146;51.114;5.654;2023-07-29T04:28:29;19.10;99.90
40434;DHT22;26146;51.114;5.654;2023-07-29T04:32:30;19.20;99.90
40434;DHT22;26146;51.114;5.654;2023-07-29T04:36:31;19.20;99.90
40434;DHT22;26146;51.114;5.654;2023-07-29T04:40:35;19.20;99.90
40434;DHT22;26146;51.114;5.654;2023-07-29T04:44:35;19.40;99.90
40434;DHT22;26146;51.114;5.654;2023-07-29T04:48:37;19.40;99.90
40434;DHT22;26146;51.114;5.654;2023-07-29T04:52:38;19.40;99.90
40434;DHT22;26146;51.114;5.654;2023-07-29T04:56:38;19.20;99.90
40434;DHT22;26146;51.114;5.654;2023-07-29T05:00:39;19.30;99.90
40434;DHT22;26146;51.114;5.654;2023-07-29T05:04:40;19.40;99.90
40434;DHT22;26146;51.114;5.654;2023-07-29T05:08:41;19.50;99.90
40434;DHT22;26146;51.114;5.654;2023-07-29T05:12:42;19.50;99.90
40434;DHT22;26146;51.114;5.654;2023-07-29T05:16:44;19.40;99.90
40434;DHT22;26146;51.114;5.654;2023-07-29T05:20:45;19.40;99.90
40434;DHT22;26146;51.114;5.654;2023-07-29T05:24:47;19.70;99.90
40434;DHT22;26146;51.114;5.654;2023-07-29T05:28:48;19.70;99.90
40434;DHT22;26146;51.114;5.654;2023-07-29T05:32:49;19.70;99.90
40434;DHT22;26146;51.114;5.654;2023-07-29T05:36:50;19.80;99.90
40434;DHT22;26146;51.114;5.654;2023-07-29T05:40:51;19.60;99.90
40434;DHT22;26146;51.114;5.654;2023-07-29T05:44:52;19.30;99.90
40434;DHT22;26146;51.114;5.654;2023-07-29T05:48:53;19.60;99.90
40434;DHT22;26146;51.114;5.654;2023-07-29T05:52:54;19.70;99.90
40434;DHT22;26146;51.114;5.654;2023-07-29T05:56:55;19.70;99.90
40434;DHT22;26146;51.114;5.654;2023-07-29T06:00:56;20.00;99.90
40434;DHT22;26146;51.114;5.654;2023-07-29T06:04:57;20.40;99.90
40434;DHT22;26146;51.114;5.654;2023-07-29T06:08:58;20.60;99.90
40434;DHT22;26146;51.114;5.654;2023-07-29T06:13:00;20.70;99.90
40434;DHT22;26146;51.114;5.654;2023-07-29T06:17:01;20.70;99.90
40434;DHT22;26146;51.114;5.654;2023-07-29T06:21:02;20.80;99.90
40434;DHT22;26146;51.114;5.654;2023-07-29T06:25:03;20.80;99.90
40434;DHT22;26146;51.114;5.654;2023-07-29T06:29:04;21.00;99.90
40434;DHT22;26146;51.114;5.654;2023-07-29T06:33:05;21.10;99.90
40434;DHT22;26146;51.114;5.654;2023-07-29T06:37:06;21.20;99.90
40434;DHT22;26146;51.114;5.654;2023-07-29T06:41:07;21.40;99.90
40434;DHT22;26146;51.114;5.654;2023-07-29T06:45:09;21.60;99.90
40434;DHT22;26146;51.114;5.654;2023-07-29T06:49:10;21.60;99.90
40434;DHT22;26146;51.114;5.654;2023-07-29T06:53:11;21.80;99.90
40434;DHT22;26146;51.114;5.654;2023-07-29T06:57:12;21.90;99.90
40434;DHT22;26146;51.114;5.654;2023-07-29T07:01:13;21.90;99.90
40434;DHT22;26146;51.114;5.654;2023-07-29T07:05:14;22.00;99.90
40434;DHT22;26146;51.114;5.654;2023-07-29T07:09:15;22.20;99.90
40434;DHT22;26146;51.114;5.654;2023-07-29T07:13:16;22.30;99.90
40434;DHT22;26146;51.114;5.654;2023-07-29T07:17:17;22.30;99.90
40434;DHT22;26146;51.114;5.654;2023-07-29T07:21:18;22.30;99.90
40434;DHT22;26146;51.114;5.654;2023-07-29T07:25:19;22.60;99.90
40434;DHT22;26146;51.114;5.654;2023-07-29T07:29:20;22.60;99.90
40434;DHT22;26146;51.114;5.654;2023-07-29T07:33:22;22.60;99.90
40434;DHT22;26146;51.114;5.654;2023-07-29T07:37:23;22.80;99.90
40434;DHT22;26146;51.114;5.654;2023-07-29T07:41:24;22.70;99.90
40434;DHT22;26146;51.114;5.654;2023-07-29T07:45:25;22.90;99.90
40434;DHT22;26146;51.114;5.654;2023-07-29T07:49:25;22.70;99.90
40434;DHT22;26146;51.114;5.654;2023-07-29T07:53:26;23.30;99.90
40434;DHT22;26146;51.114;5.654;2023-07-29T07:57:27;23.50;99.90
40434;DHT22;26146;51.114;5.654;2023-07-29T08:01:37;23.90;99.90
40434;DHT22;26146;51.114;5.654;2023-07-29T08:05:38;23.90;99.90
40434;DHT22;26146;51.114;5.654;2023-07-29T08:09:39;24.00;99.90
40434;DHT22;26146;51.114;5.654;2023-07-29T08:13:40;24.40;99.90
40434;DHT22;26146;51.114;5.654;2023-07-29T08:17:41;24.90;99.90
40434;DHT22;26146;51.114;5.654;2023-07-29T08:21:42;24.80;99.90
40434;DHT22;26146;51.114;5.654;2023-07-29T08:25:43;24.70;99.90
40434;DHT22;26146;51.114;5.654;2023-07-29T08:29:44;25.10;99.90
40434;DHT22;26146;51.114;5.654;2023-07-29T08:33:45;25.00;99.90
40434;DHT22;26146;51.114;5.654;2023-07-29T08:37:45;24.50;99.90
40434;DHT22;26146;51.114;5.654;2023-07-29T08:41:54;24.90;99.90
40434;DHT22;26146;51.114;5.654;2023-07-29T08:45:58;25.70;99.90
40434;DHT22;26146;51.114;5.654;2023-07-29T08:49:59;25.70;99.90
40434;DHT22;26146;51.114;5.654;2023-07-29T08:54:01;25.70;99.90
40434;DHT22;26146;51.114;5.654;2023-07-29T08:58:02;25.20;99.90
40434;DHT22;26146;51.114;5.654;2023-07-29T09:02:04;25.50;99.90
40434;DHT22;26146;51.114;5.654;2023-07-29T09:06:05;25.80;99.90
40434;DHT22;26146;51.114;5.654;2023-07-29T09:10:09;26.10;99.90
40434;DHT22;26146;51.114;5.654;2023-07-29T09:14:11;26.40;99.90
40434;DHT22;26146;51.114;5.654;2023-07-29T09:18:16;26.10;99.90
40434;DHT22;26146;51.114;5.654;2023-07-29T09:22:20;26.10;99.90
40434;DHT22;26146;51.114;5.654;2023-07-29T09:26:25;25.90;99.90
40434;DHT22;26146;51.114;5.654;2023-07-29T09:30:26;25.60;99.90
40434;DHT22;26146;51.114;5.654;2023-07-29T09:34:27;25.30;99.90
40434;DHT22;26146;51.114;5.654;2023-07-29T09:38:28;25.30;99.90
40434;DHT22;26146;51.114;5.654;2023-07-29T09:42:30;25.60;99.90
40434;DHT22;26146;51.114;5.654;2023-07-29T09:46:37;25.80;99.90
40434;DHT22;26146;51.114;5.654;2023-07-29T09:50:38;26.30;99.90
40434;DHT22;26146;51.114;5.654;2023-07-29T09:54:39;26.30;99.90
40434;DHT22;26146;51.114;5.654;2023-07-29T09:58:43;26.50;99.90
40434;DHT22;26146;51.114;5.654;2023-07-29T10:02:44;26.30;99.90
40434;DHT22;26146;51.114;5.654;2023-07-29T10:06:46;26.20;99.90
40434;DHT22;26146;51.114;5.654;2023-07-29T10:10:49;25.90;99.90
40434;DHT22;26146;51.114;5.654;2023-07-29T10:14:51;26.00;99.90
40434;DHT22;26146;51.114;5.654;2023-07-29T10:18:53;26.20;99.90
40434;DHT22;26146;51.114;5.654;2023-07-29T10:22:56;26.70;99.90
40434;DHT22;26146;51.114;5.654;2023-07-29T10:27:01;27.00;99.90
40434;DHT22;26146;51.114;5.654;2023-07-29T10:31:03;27.10;99.90
40434;DHT22;26146;51.114;5.654;2023-07-29T10:35:05;27.30;99.90
40434;DHT22;26146;51.114;5.654;2023-07-29T10:39:07;27.90;99.60
40434;DHT22;26146;51.114;5.654;2023-07-29T10:43:12;28.30;98.60
40434;DHT22;26146;51.114;5.654;2023-07-29T10:47:19;28.50;97.80
40434;DHT22;26146;51.114;5.654;2023-07-29T10:51:38;28.00;98.70
40434;DHT22;26146;51.114;5.654;2023-07-29T10:55:46;28.10;98.80
40434;DHT22;26146;51.114;5.654;2023-07-29T10:59:55;28.10;98.20
40434;DHT22;26146;51.114;5.654;2023-07-29T11:04:22;27.90;98.70
40434;DHT22;26146;51.114;5.654;2023-07-29T11:08:28;27.80;99.50
40434;DHT22;26146;51.114;5.654;2023-07-29T11:16:41;28.20;97.80
40434;DHT22;26146;51.114;5.654;2023-07-29T11:20:45;28.50;98.10
40434;DHT22;26146;51.114;5.654;2023-07-29T11:24:46;28.70;97.90
40434;DHT22;26146;51.114;5.654;2023-07-29T11:28:47;28.60;97.30
40434;DHT22;26146;51.114;5.654;2023-07-29T11:32:50;28.50;97.70
40434;DHT22;26146;51.114;5.654;2023-07-29T11:36:51;28.70;97.20
40434;DHT22;26146;51.114;5.654;2023-07-29T11:41:00;28.80;96.10
40434;DHT22;26146;51.114;5.654;2023-07-29T11:45:02;28.40;96.80
40434;DHT22;26146;51.114;5.654;2023-07-29T11:49:04;27.90;98.50
40434;DHT22;26146;51.114;5.654;2023-07-29T11:53:05;27.80;99.90
40434;DHT22;26146;51.114;5.654;2023-07-29T11:57:09;27.90;99.90
40434;DHT22;26146;51.114;5.654;2023-07-29T12:01:14;27.80;99.40
40434;DHT22;26146;51.114;5.654;2023-07-29T12:05:15;27.90;99.20
40434;DHT22;26146;51.114;5.654;2023-07-29T12:09:17;27.90;99.00
40434;DHT22;26146;51.114;5.654;2023-07-29T12:13:18;27.90;99.90
40434;DHT22;26146;51.114;5.654;2023-07-29T12:17:21;27.80;99.90
40434;DHT22;26146;51.114;5.654;2023-07-29T12:21:22;27.60;99.90
40434;DHT22;26146;51.114;5.654;2023-07-29T12:25:23;27.10;99.90
40434;DHT22;26146;51.114;5.654;2023-07-29T12:29:24;26.40;99.90
40434;DHT22;26146;51.114;5.654;2023-07-29T12:33:32;26.20;99.90
40434;DHT22;26146;51.114;5.654;2023-07-29T12:37:38;25.80;99.90
40434;DHT22;26146;51.114;5.654;2023-07-29T12:41:43;25.60;99.90
40434;DHT22;26146;51.114;5.654;2023-07-29T12:45:44;25.50;99.90
40434;DHT22;26146;51.114;5.654;2023-07-29T12:49:45;25.60;99.90
40434;DHT22;26146;51.114;5.654;2023-07-29T12:53:46;25.70;99.90
40434;DHT22;26146;51.114;5.654;2023-07-29T12:57:47;25.70;99.90
40434;DHT22;26146;51.114;5.654;2023-07-29T13:01:48;25.60;99.90
40434;DHT22;26146;51.114;5.654;2023-07-29T13:05:49;26.10;99.90
40434;DHT22;26146;51.114;5.654;2023-07-29T13:09:50;26.40;99.90
40434;DHT22;26146;51.114;5.654;2023-07-29T13:13:51;26.80;99.90
40434;DHT22;26146;51.114;5.654;2023-07-29T13:17:54;26.80;99.90
40434;DHT22;26146;51.114;5.654;2023-07-29T13:21:55;26.70;99.90
40434;DHT22;26146;51.114;5.654;2023-07-29T13:25:57;25.40;99.90
40434;DHT22;26146;51.114;5.654;2023-07-29T13:29:58;24.70;99.90
40434;DHT22;26146;51.114;5.654;2023-07-29T13:33:59;24.50;99.90
40434;DHT22;26146;51.114;5.654;2023-07-29T13:38:00;24.40;99.90
40434;DHT22;26146;51.114;5.654;2023-07-29T13:42:02;23.90;99.90
40434;DHT22;26146;51.114;5.654;2023-07-29T13:46:03;23.40;99.90
40434;DHT22;26146;51.114;5.654;2023-07-29T13:50:04;23.40;99.90
40434;DHT22;26146;51.114;5.654;2023-07-29T13:54:05;23.60;99.90
40434;DHT22;26146;51.114;5.654;2023-07-29T13:58:06;23.70;99.90
40434;DHT22;26146;51.114;5.654;2023-07-29T14:02:08;24.40;99.90
40434;DHT22;26146;51.114;5.654;2023-07-29T14:06:08;24.70;99.90
40434;DHT22;26146;51.114;5.654;2023-07-29T14:10:09;24.70;99.90
40434;DHT22;26146;51.114;5.654;2023-07-29T14:14:13;25.00;99.90
40434;DHT22;26146;51.114;5.654;2023-07-29T14:18:14;24.60;99.90
40434;DHT22;26146;51.114;5.654;2023-07-29T14:22:15;24.20;99.90
40434;DHT22;26146;51.114;5.654;2023-07-29T14:26:16;24.40;99.90
40434;DHT22;26146;51.114;5.654;2023-07-29T14:30:17;24.30;99.90
40434;DHT22;26146;51.114;5.654;2023-07-29T14:34:18;24.00;99.90
40434;DHT22;26146;51.114;5.654;2023-07-29T14:38:19;23.80;99.90
40434;DHT22;26146;51.114;5.654;2023-07-29T14:42:20;23.50;99.90
40434;DHT22;26146;51.114;5.654;2023-07-29T14:46:21;23.80;99.90
40434;DHT22;26146;51.114;5.654;2023-07-29T14:50:22;23.90;99.90
40434;DHT22;26146;51.114;5.654;2023-07-29T14:54:23;24.00;99.90
40434;DHT22;26146;51.114;5.654;2023-07-29T14:58:24;24.10;99.90
40434;DHT22;26146;51.114;5.654;2023-07-29T15:02:26;24.10;99.90
40434;DHT22;26146;51.114;5.654;2023-07-29T15:06:27;24.10;99.90
40434;DHT22;26146;51.114;5.654;2023-07-29T15:10:28;24.20;99.90
40434;DHT22;26146;51.114;5.654;2023-07-29T15:14:29;24.10;99.90
40434;DHT22;26146;51.114;5.654;2023-07-29T15:18:30;24.30;99.90
40434;DHT22;26146;51.114;5.654;2023-07-29T15:22:31;24.60;99.90
40434;DHT22;26146;51.114;5.654;2023-07-29T15:26:32;24.80;99.90
40434;DHT22;26146;51.114;5.654;2023-07-29T15:30:35;25.20;99.90
40434;DHT22;26146;51.114;5.654;2023-07-29T15:34:37;25.30;99.90
40434;DHT22;26146;51.114;5.654;2023-07-29T15:38:37;25.80;99.90
40434;DHT22;26146;51.114;5.654;2023-07-29T15:42:38;25.70;99.90
40434;DHT22;26146;51.114;5.654;2023-07-29T15:46:39;25.70;99.90
40434;DHT22;26146;51.114;5.654;2023-07-29T15:50:41;25.80;99.90
40434;DHT22;26146;51.114;5.654;2023-07-29T15:54:45;25.50;99.90
40434;DHT22;26146;51.114;5.654;2023-07-29T15:58:46;25.50;99.90
40434;DHT22;26146;51.114;5.654;2023-07-29T16:02:47;25.20;99.90
40434;DHT22;26146;51.114;5.654;2023-07-29T16:06:48;25.10;99.90
40434;DHT22;26146;51.114;5.654;2023-07-29T16:10:52;25.10;99.90
40434;DHT22;26146;51.114;5.654;2023-07-29T16:14:53;25.10;99.90
40434;DHT22;26146;51.114;5.654;2023-07-29T16:18:54;25.10;99.90
40434;DHT22;26146;51.114;5.654;2023-07-29T16:22:55;25.30;99.90
40434;DHT22;26146;51.114;5.654;2023-07-29T16:26:56;25.30;99.90
40434;DHT22;26146;51.114;5.654;2023-07-29T16:30:57;25.50;99.90
40434;DHT22;26146;51.114;5.654;2023-07-29T16:34:58;25.70;99.90
40434;DHT22;26146;51.114;5.654;2023-07-29T16:38:59;25.80;99.90
40434;DHT22;26146;51.114;5.654;2023-07-29T16:43:00;25.70;99.90
40434;DHT22;26146;51.114;5.654;2023-07-29T16:47:01;25.80;99.90
40434;DHT22;26146;51.114;5.654;2023-07-29T16:51:02;25.30;99.90
40434;DHT22;26146;51.114;5.654;2023-07-29T16:55:05;25.40;99.90
40434;DHT22;26146;51.114;5.654;2023-07-29T16:59:06;24.70;99.90
40434;DHT22;26146;51.114;5.654;2023-07-29T17:03:07;24.10;99.90
40434;DHT22;26146;51.114;5.654;2023-07-29T17:07:08;23.70;99.90
40434;DHT22;26146;51.114;5.654;2023-07-29T17:11:09;23.60;99.90
40434;DHT22;26146;51.114;5.654;2023-07-29T17:15:12;23.30;99.90
40434;DHT22;26146;51.114;5.654;2023-07-29T17:19:13;23.20;99.90
40434;DHT22;26146;51.114;5.654;2023-07-29T17:23:15;23.00;99.90
40434;DHT22;26146;51.114;5.654;2023-07-29T17:27:15;23.10;99.90
40434;DHT22;26146;51.114;5.654;2023-07-29T17:31:17;23.10;99.90
40434;DHT22;26146;51.114;5.654;2023-07-29T17:35:18;23.20;99.90
40434;DHT22;26146;51.114;5.654;2023-07-29T17:39:20;23.30;99.90
40434;DHT22;26146;51.114;5.654;2023-07-29T17:43:22;23.30;99.90
40434;DHT22;26146;51.114;5.654;2023-07-29T17:47:23;23.20;99.90
40434;DHT22;26146;51.114;5.654;2023-07-29T17:51:24;23.00;99.90
40434;DHT22;26146;51.114;5.654;2023-07-29T17:55:25;22.70;99.90
40434;DHT22;26146;51.114;5.654;2023-07-29T17:59:26;22.70;99.90
40434;DHT22;26146;51.114;5.654;2023-07-29T18:03:26;22.40;99.90
40434;DHT22;26146;51.114;5.654;2023-07-29T18:07:27;22.50;99.90
40434;DHT22;26146;51.114;5.654;2023-07-29T18:11:28;22.60;99.90
40434;DHT22;26146;51.114;5.654;2023-07-29T18:15:32;22.80;99.90
40434;DHT22;26146;51.114;5.654;2023-07-29T18:19:33;22.80;99.90
40434;DHT22;26146;51.114;5.654;2023-07-29T18:23:34;23.10;99.90
40434;DHT22;26146;51.114;5.654;2023-07-29T18:27:35;23.20;99.90
40434;DHT22;26146;51.114;5.654;2023-07-29T18:31:37;23.10;99.90
40434;DHT22;26146;51.114;5.654;2023-07-29T18:35:42;23.20;99.90
40434;DHT22;26146;51.114;5.654;2023-07-29T18:39:45;23.20;99.90
40434;DHT22;26146;51.114;5.654;2023-07-29T18:43:46;23.30;99.90
40434;DHT22;26146;51.114;5.654;2023-07-29T18:47:47;23.50;99.90
40434;DHT22;26146;51.114;5.654;2023-07-29T18:51:50;23.40;99.90
40434;DHT22;26146;51.114;5.654;2023-07-29T18:55:51;23.30;99.90
40434;DHT22;26146;51.114;5.654;2023-07-29T18:59:52;23.30;99.90
40434;DHT22;26146;51.114;5.654;2023-07-29T19:03:54;23.20;99.90
40434;DHT22;26146;51.114;5.654;2023-07-29T19:07:54;23.30;99.90
40434;DHT22;26146;51.114;5.654;2023-07-29T19:11:56;23.20;99.90
40434;DHT22;26146;51.114;5.654;2023-07-29T19:15:57;23.10;99.90
40434;DHT22;26146;51.114;5.654;2023-07-29T19:19:58;22.70;99.90
40434;DHT22;26146;51.114;5.654;2023-07-29T19:23:59;22.70;99.90
40434;DHT22;26146;51.114;5.654;2023-07-29T19:27:59;22.30;99.90
40434;DHT22;26146;51.114;5.654;2023-07-29T19:32:01;22.40;99.90
40434;DHT22;26146;51.114;5.654;2023-07-29T19:36:01;22.00;99.90
40434;DHT22;26146;51.114;5.654;2023-07-29T19:40:06;21.80;99.90
40434;DHT22;26146;51.114;5.654;2023-07-29T19:44:07;21.80;99.90
40434;DHT22;26146;51.114;5.654;2023-07-29T19:48:08;21.60;99.90
40434;DHT22;26146;51.114;5.654;2023-07-29T19:52:09;21.50;99.90
40434;DHT22;26146;51.114;5.654;2023-07-29T19:56:10;21.40;99.90
40434;DHT22;26146;51.114;5.654;2023-07-29T20:00:11;21.50;99.90
40434;DHT22;26146;51.114;5.654;2023-07-29T20:04:13;21.50;99.90
40434;DHT22;26146;51.114;5.654;2023-07-29T20:08:14;21.70;99.90
40434;DHT22;26146;51.114;5.654;2023-07-29T20:12:15;21.30;99.90
40434;DHT22;26146;51.114;5.654;2023-07-29T20:16:16;20.90;99.90
40434;DHT22;26146;51.114;5.654;2023-07-29T20:20:17;20.50;99.90
40434;DHT22;26146;51.114;5.654;2023-07-29T20:24:18;20.30;99.90
40434;DHT22;26146;51.114;5.654;2023-07-29T20:28:19;20.40;99.90
40434;DHT22;26146;51.114;5.654;2023-07-29T20:32:21;20.40;99.90
40434;DHT22;26146;51.114;5.654;2023-07-29T20:36:22;20.80;99.90
40434;DHT22;26146;51.114;5.654;2023-07-29T20:40:28;20.70;99.90
40434;DHT22;26146;51.114;5.654;2023-07-29T20:44:29;20.30;99.90
40434;DHT22;26146;51.114;5.654;2023-07-29T20:48:30;20.10;99.90
40434;DHT22;26146;51.114;5.654;2023-07-29T20:52:31;20.00;99.90
40434;DHT22;26146;51.114;5.654;2023-07-29T20:56:32;19.90;99.90
40434;DHT22;26146;51.114;5.654;2023-07-29T21:00:33;19.80;99.90
40434;DHT22;26146;51.114;5.654;2023-07-29T21:04:34;19.60;99.90
40434;DHT22;26146;51.114;5.654;2023-07-29T21:08:36;19.70;99.90
40434;DHT22;26146;51.114;5.654;2023-07-29T21:12:37;19.90;99.90
40434;DHT22;26146;51.114;5.654;2023-07-29T21:16:38;19.80;99.90
40434;DHT22;26146;51.114;5.654;2023-07-29T21:20:39;19.70;99.90
40434;DHT22;26146;51.114;5.654;2023-07-29T21:24:43;19.80;99.90
40434;DHT22;26146;51.114;5.654;2023-07-29T21:28:44;19.90;99.90
40434;DHT22;26146;51.114;5.654;2023-07-29T21:32:45;19.90;99.90
40434;DHT22;26146;51.114;5.654;2023-07-29T21:36:46;20.00;99.90
40434;DHT22;26146;51.114;5.654;2023-07-29T21:40:48;20.00;99.90
40434;DHT22;26146;51.114;5.654;2023-07-29T21:44:50;19.90;99.90
40434;DHT22;26146;51.114;5.654;2023-07-29T21:48:51;19.90;99.90
40434;DHT22;26146;51.114;5.654;2023-07-29T21:52:52;19.50;99.90
40434;DHT22;26146;51.114;5.654;2023-07-29T21:56:53;19.50;99.90
40434;DHT22;26146;51.114;5.654;2023-07-29T22:00:55;19.20;99.90
40434;DHT22;26146;51.114;5.654;2023-07-29T22:04:56;19.00;99.90
40434;DHT22;26146;51.114;5.654;2023-07-29T22:08:58;18.80;99.90
40434;DHT22;26146;51.114;5.654;2023-07-29T22:12:59;18.80;99.90
40434;DHT22;26146;51.114;5.654;2023-07-29T22:17:00;18.80;99.90
40434;DHT22;26146;51.114;5.654;2023-07-29T22:21:03;18.70;99.90
40434;DHT22;26146;51.114;5.654;2023-07-29T22:25:05;18.60;99.90
40434;DHT22;26146;51.114;5.654;2023-07-29T22:29:06;18.80;99.90
40434;DHT22;26146;51.114;5.654;2023-07-29T22:33:07;18.80;99.90
40434;DHT22;26146;51.114;5.654;2023-07-29T22:37:08;18.80;99.90
40434;DHT22;26146;51.114;5.654;2023-07-29T22:41:09;18.70;99.90
40434;DHT22;26146;51.114;5.654;2023-07-29T22:45:10;18.40;99.90
40434;DHT22;26146;51.114;5.654;2023-07-29T22:49:11;18.30;99.90
40434;DHT22;26146;51.114;5.654;2023-07-29T22:53:13;18.10;99.90
40434;DHT22;26146;51.114;5.654;2023-07-29T22:57:15;17.90;99.90
40434;DHT22;26146;51.114;5.654;2023-07-29T23:01:16;18.00;99.90
40434;DHT22;26146;51.114;5.654;2023-07-29T23:05:17;17.90;99.90
40434;DHT22;26146;51.114;5.654;2023-07-29T23:09:18;17.90;99.90
40434;DHT22;26146;51.114;5.654;2023-07-29T23:13:19;17.70;99.90
40434;DHT22;26146;51.114;5.654;2023-07-29T23:17:20;17.70;99.90
40434;DHT22;26146;51.114;5.654;2023-07-29T23:21:21;17.60;99.90
40434;DHT22;26146;51.114;5.654;2023-07-29T23:25:22;17.70;99.90
40434;DHT22;26146;51.114;5.654;2023-07-29T23:29:23;17.60;99.90
40434;DHT22;26146;51.114;5.654;2023-07-29T23:33:24;17.50;99.90
40434;DHT22;26146;51.114;5.654;2023-07-29T23:37:26;17.60;99.90
40434;DHT22;26146;51.114;5.654;2023-07-29T23:41:27;17.60;99.90
40434;DHT22;26146;51.114;5.654;2023-07-29T23:45:28;17.60;99.90
40434;DHT22;26146;51.114;5.654;2023-07-29T23:49:29;17.80;99.90
40434;DHT22;26146;51.114;5.654;2023-07-29T23:53:30;17.90;99.90
40434;DHT22;26146;51.114;5.654;2023-07-29T23:57:31;17.80;99.90
